createdAt,value
2024-01-01T00:00:05.289Z,96007.16
2024-01-01T00:02:31.864Z,96007.53
2024-01-01T00:04:58.485Z,96008.00
2024-01-01T00:07:25.090Z,95999.38
2024-01-01T00:09:51.647Z,96003.03
2024-01-01T00:12:18.197Z,96019.34
2024-01-01T00:14:44.777Z,96001.66
2024-01-01T00:17:11.511Z,95999.25
2024-01-01T00:19:38.296Z,95999.09
2024-01-01T00:22:04.953Z,95982.44
2024-01-01T00:24:31.515Z,95978.19
2024-01-01T00:26:58.063Z,95988.06
2024-01-01T00:29:28.373Z,95977.50
2024-01-01T00:32:00.390Z,95982.44
2024-01-01T00:34:27.110Z,95984.88
2024-01-01T00:36:53.669Z,95978.19
2024-01-01T00:39:20.218Z,95978.03
2024-01-01T00:41:46.843Z,95972.91
2024-01-01T00:44:13.477Z,95978.84
2024-01-01T00:46:40.148Z,95968.31
2024-01-01T00:49:06.758Z,95979.59
2024-01-01T00:51:33.344Z,95964.97
2024-01-01T00:53:59.917Z,95982.97
2024-01-01T00:56:26.659Z,95980.25
2024-01-01T00:58:53.185Z,95978.00
2024-01-01T01:01:19.711Z,95986.66
2024-01-01T01:03:46.213Z,95985.44
2024-01-01T01:06:18.423Z,95994.38
2024-01-01T01:08:50.762Z,95996.78
2024-01-01T01:11:17.172Z,96000.38
2024-01-01T01:13:43.631Z,96000.06
2024-01-01T01:16:10.059Z,96007.50
2024-01-01T01:18:36.555Z,96001.69
2024-01-01T01:21:03.146Z,96006.75
2024-01-01T01:23:29.597Z,96016.31
2024-01-01T01:25:56.049Z,96012.97
2024-01-01T01:28:22.488Z,96008.38
2024-01-01T01:30:48.918Z,96020.13
2024-01-01T01:33:15.430Z,96027.09
2024-01-01T01:35:41.996Z,96015.19
2024-01-01T01:38:08.518Z,96011.41
2024-01-01T01:40:35.142Z,96022.00
2024-01-01T01:43:01.783Z,96023.91
2024-01-01T01:45:28.205Z,96032.34
2024-01-01T01:47:54.660Z,96028.81
2024-01-01T01:50:21.137Z,96032.34
2024-01-01T01:52:47.561Z,96030.81
2024-01-01T01:55:14.015Z,96040.03
2024-01-01T01:57:40.572Z,96032.09
2024-01-01T02:00:07.144Z,96029.50
2024-01-01T02:02:33.685Z,96032.41
2024-01-01T02:05:00.372Z,96039.03
2024-01-01T02:07:27.000Z,96033.94
2024-01-01T02:09:53.574Z,96040.88
2024-01-01T02:12:20.204Z,96032.69
2024-01-01T02:14:46.739Z,96037.81
2024-01-01T02:17:13.376Z,96043.28
2024-01-01T02:19:39.958Z,96045.56
2024-01-01T02:22:06.584Z,96048.88
2024-01-01T02:24:33.138Z,96052.50
2024-01-01T02:26:59.867Z,96048.94
2024-01-01T02:29:26.477Z,96048.72
2024-01-01T02:31:53.171Z,96049.44
2024-01-01T02:34:19.785Z,96054.81
2024-01-01T02:36:46.341Z,96053.66
2024-01-01T02:39:12.892Z,96052.28
2024-01-01T02:41:39.462Z,96055.88
2024-01-01T02:44:06.107Z,96056.25
2024-01-01T02:46:32.864Z,96059.31
2024-01-01T02:48:59.809Z,96079.50
2024-01-01T02:51:26.390Z,96075.78
2024-01-01T02:53:52.974Z,96076.16
2024-01-01T02:56:19.663Z,96070.94
2024-01-01T02:58:46.360Z,96082.84
2024-01-01T03:01:13.146Z,96078.94
2024-01-01T03:03:39.704Z,96081.56
2024-01-01T03:06:06.418Z,96073.78
2024-01-01T03:08:33.093Z,96075.09
2024-01-01T03:10:59.892Z,96086.63
2024-01-01T03:13:26.585Z,96079.06
2024-01-01T03:15:53.124Z,96070.31
2024-01-01T03:18:19.823Z,96067.59
2024-01-01T03:20:46.540Z,96064.38
2024-01-01T03:23:13.236Z,96059.94
2024-01-01T03:25:39.840Z,96066.69
2024-01-01T03:28:06.639Z,96070.44
2024-01-01T03:30:33.309Z,96075.53
2024-01-01T03:32:59.982Z,96067.03
2024-01-01T03:35:26.634Z,96067.28
2024-01-01T03:37:53.248Z,96065.81
2024-01-01T03:40:19.817Z,96057.91
2024-01-01T03:42:46.377Z,96066.28
2024-01-01T03:45:12.886Z,96064.13
2024-01-01T03:47:39.556Z,96055.19
2024-01-01T03:50:06.177Z,96060.47
2024-01-01T03:52:32.810Z,96051.66
2024-01-01T03:54:59.378Z,96053.59
2024-01-01T03:57:25.898Z,96058.72
2024-01-01T03:59:52.658Z,96060.25
2024-01-01T04:02:19.335Z,96059.59
2024-01-01T04:04:46.094Z,96063.84
2024-01-01T04:07:12.724Z,96058.66
2024-01-01T04:09:39.294Z,96059.72
2024-01-01T04:12:05.878Z,96065.19
2024-01-01T04:14:35.647Z,96062.22
2024-01-01T04:17:02.092Z,96058.56
2024-01-01T04:19:28.504Z,96063.53
2024-01-01T04:21:54.909Z,96072.16
2024-01-01T04:24:21.295Z,96064.19
2024-01-01T04:26:47.715Z,96072.59
2024-01-01T04:29:14.193Z,96083.59
2024-01-01T04:31:40.697Z,96074.69
2024-01-01T04:34:07.096Z,96072.81
2024-01-01T04:36:33.596Z,96067.06
2024-01-01T04:39:00.086Z,96066.34
2024-01-01T04:41:26.568Z,96074.28
2024-01-01T04:43:53.018Z,96073.19
2024-01-01T04:46:19.415Z,96065.75
2024-01-01T04:48:45.840Z,96061.66
2024-01-01T04:51:12.362Z,96068.16
2024-01-01T04:53:38.836Z,96057.06
2024-01-01T04:56:05.269Z,96053.00
2024-01-01T04:58:31.677Z,96038.28
2024-01-01T05:00:58.123Z,96037.81
2024-01-01T05:03:24.558Z,96045.25
2024-01-01T05:05:51.168Z,96047.81
2024-01-01T05:08:17.627Z,96058.22
2024-01-01T05:10:44.141Z,96065.59
2024-01-01T05:13:10.567Z,96058.75
2024-01-01T05:15:37.253Z,96060.91
2024-01-01T05:18:04.004Z,96069.09
2024-01-01T05:20:30.791Z,96065.44
2024-01-01T05:22:57.526Z,96082.75
2024-01-01T05:25:24.095Z,96066.84
2024-01-01T05:27:50.670Z,96073.28
2024-01-01T05:30:17.333Z,96078.75
2024-01-01T05:32:44.039Z,96087.75
2024-01-01T05:35:11.027Z,96079.91
2024-01-01T05:37:37.702Z,96087.75
2024-01-01T05:40:04.340Z,96081.09
2024-01-01T05:42:30.990Z,96074.78
2024-01-01T05:44:57.645Z,96077.75
2024-01-01T05:47:24.251Z,96072.88
2024-01-01T05:49:50.921Z,96070.84
2024-01-01T05:52:17.566Z,96063.97
2024-01-01T05:54:44.147Z,96075.50
2024-01-01T05:57:10.700Z,96075.50
2024-01-01T05:59:37.245Z,96063.22
2024-01-01T06:02:03.953Z,96069.19
2024-01-01T06:04:32.469Z,96085.91
2024-01-01T06:06:59.095Z,96090.22
2024-01-01T06:09:25.718Z,96093.91
2024-01-01T06:11:52.292Z,96091.59
2024-01-01T06:14:19.049Z,96094.41
2024-01-01T06:16:45.825Z,96087.50
2024-01-01T06:19:12.572Z,96081.44
2024-01-01T06:21:39.206Z,96090.53
2024-01-01T06:24:06.005Z,96088.31
2024-01-01T06:26:32.668Z,96091.97
2024-01-01T06:28:59.230Z,96089.69
2024-01-01T06:31:25.864Z,96091.63
2024-01-01T06:33:52.682Z,96092.41
2024-01-01T06:36:19.334Z,96098.13
2024-01-01T06:38:45.965Z,96099.50
2024-01-01T06:41:12.601Z,96099.28
2024-01-01T06:43:39.202Z,96101.66
2024-01-01T06:46:05.776Z,96098.69
2024-01-01T06:48:32.625Z,96095.94
2024-01-01T06:50:59.208Z,96111.03
2024-01-01T06:53:25.938Z,96105.72
2024-01-01T06:55:52.534Z,96109.09
2024-01-01T06:58:19.286Z,96116.13
2024-01-01T07:00:45.890Z,96122.41
2024-01-01T07:03:12.595Z,96115.34
2024-01-01T07:05:39.410Z,96121.19
2024-01-01T07:08:06.657Z,96121.53
2024-01-01T07:10:33.468Z,96128.16
2024-01-01T07:12:59.998Z,96128.81
2024-01-01T07:15:26.753Z,96144.94
2024-01-01T07:17:53.860Z,96140.56
2024-01-01T07:20:21.107Z,96136.09
2024-01-01T07:22:47.895Z,96137.88
2024-01-01T07:25:14.686Z,96134.13
2024-01-01T07:27:41.324Z,96139.03
2024-01-01T07:30:08.062Z,96153.03
2024-01-01T07:32:34.750Z,96144.69
2024-01-01T07:35:01.486Z,96149.19
2024-01-01T07:37:28.118Z,96145.38
2024-01-01T07:39:55.726Z,96152.56
2024-01-01T07:42:22.465Z,96155.06
2024-01-01T07:44:49.083Z,96164.66
2024-01-01T07:47:15.713Z,96158.97
2024-01-01T07:49:42.523Z,96164.44
2024-01-01T07:52:09.096Z,96166.22
2024-01-01T07:54:35.719Z,96168.97
2024-01-01T07:57:02.280Z,96168.63
2024-01-01T07:59:28.861Z,96169.53
2024-01-01T08:01:55.564Z,96171.63
2024-01-01T08:04:22.259Z,96161.88
2024-01-01T08:06:48.789Z,96169.47
2024-01-01T08:09:15.362Z,96165.66
2024-01-01T08:11:41.894Z,96163.78
2024-01-01T08:14:08.618Z,96166.00
2024-01-01T08:16:35.555Z,96163.59
2024-01-01T08:19:02.361Z,96164.84
2024-01-01T08:21:28.954Z,96162.63
2024-01-01T08:23:56.012Z,96164.94
2024-01-01T08:26:22.738Z,96173.97
2024-01-01T08:28:49.450Z,96178.09
2024-01-01T08:31:16.034Z,96176.69
2024-01-01T08:33:42.632Z,96165.66
2024-01-01T08:36:09.305Z,96167.75
2024-01-01T08:38:35.940Z,96172.97
2024-01-01T08:41:02.516Z,96174.09
2024-01-01T08:43:29.255Z,96163.63
2024-01-01T08:45:56.037Z,96170.50
2024-01-01T08:48:22.845Z,96167.78
2024-01-01T08:50:49.628Z,96171.25
2024-01-01T08:53:16.969Z,96171.84
2024-01-01T08:55:44.118Z,96174.34
2024-01-01T08:58:10.686Z,96175.47
2024-01-01T09:00:37.288Z,96182.34
2024-01-01T09:03:03.912Z,96179.53
2024-01-01T09:05:30.562Z,96181.69
2024-01-01T09:07:57.219Z,96186.69
2024-01-01T09:10:23.778Z,96189.88
2024-01-01T09:12:50.588Z,96187.06
2024-01-01T09:15:17.260Z,96193.06
2024-01-01T09:17:44.118Z,96193.00
2024-01-01T09:20:10.824Z,96196.31
2024-01-01T09:22:37.402Z,96195.41
2024-01-01T09:25:03.965Z,96180.69
2024-01-01T09:27:30.527Z,96197.25
2024-01-01T09:29:57.046Z,96196.44
2024-01-01T09:32:23.744Z,96200.47
2024-01-01T09:34:50.345Z,96202.78
2024-01-01T09:37:16.783Z,96197.78
2024-01-01T09:39:43.189Z,96214.59
2024-01-01T09:42:09.594Z,96206.81
2024-01-01T09:44:36.071Z,96199.78
2024-01-01T09:47:02.595Z,96207.81
2024-01-01T09:49:29.156Z,96204.28
2024-01-01T09:51:55.614Z,96206.34
2024-01-01T09:54:22.070Z,96215.31
2024-01-01T09:56:48.532Z,96218.84
2024-01-01T09:59:15.042Z,96226.28
2024-01-01T10:01:41.594Z,96228.66
2024-01-01T10:04:08.004Z,96227.34
2024-01-01T10:06:34.635Z,96224.03
2024-01-01T10:09:01.073Z,96219.22
2024-01-01T10:11:27.639Z,96222.28
2024-01-01T10:13:54.106Z,96211.97
2024-01-01T10:16:22.623Z,96208.69
2024-01-01T10:18:49.185Z,96212.34
2024-01-01T10:21:16.535Z,96213.22
2024-01-01T10:23:43.261Z,96216.53
2024-01-01T10:26:09.737Z,96204.75
2024-01-01T10:28:36.215Z,96207.94
2024-01-01T10:31:02.877Z,96204.31
2024-01-01T10:33:29.551Z,96211.84
2024-01-01T10:35:56.242Z,96214.59
2024-01-01T10:38:22.938Z,96210.97
2024-01-01T10:40:49.550Z,96214.59
2024-01-01T10:43:16.163Z,96221.38
2024-01-01T10:45:42.696Z,96221.97
2024-01-01T10:48:09.604Z,96213.69
2024-01-01T10:50:36.298Z,96217.00
2024-01-01T10:53:03.011Z,96212.19
2024-01-01T10:55:29.667Z,96211.84
2024-01-01T10:57:56.302Z,96215.41
2024-01-01T11:00:22.993Z,96220.44
2024-01-01T11:02:49.636Z,96223.59
2024-01-01T11:05:16.498Z,96223.69
2024-01-01T11:07:43.217Z,96222.22
2024-01-01T11:10:19.000Z,96234.00
2024-01-01T11:12:48.542Z,96218.47
2024-01-01T11:15:15.161Z,96230.25
2024-01-01T11:17:41.831Z,96224.50
2024-01-01T11:20:08.536Z,96222.66
2024-01-01T11:22:35.154Z,96223.41
2024-01-01T11:25:02.180Z,96218.19
2024-01-01T11:27:28.957Z,96227.59
2024-01-01T11:29:55.744Z,96217.13
2024-01-01T11:32:22.568Z,96215.34
2024-01-01T11:34:54.192Z,96215.84
2024-01-01T11:37:23.529Z,96222.16
2024-01-01T11:39:49.984Z,96213.78
2024-01-01T11:42:16.564Z,96217.50
2024-01-01T11:44:43.103Z,96210.88
2024-01-01T11:47:09.614Z,96207.09
2024-01-01T11:49:36.079Z,96209.81
2024-01-01T11:52:02.610Z,96203.72
2024-01-01T11:54:29.047Z,96198.13
2024-01-01T11:56:55.494Z,96194.91
2024-01-01T11:59:22.192Z,96196.19
2024-01-01T12:01:48.830Z,96190.25
2024-01-01T12:04:15.482Z,96186.44
2024-01-01T12:06:42.100Z,96182.81
2024-01-01T12:09:08.594Z,96183.38
2024-01-01T12:11:34.991Z,96187.47
2024-01-01T12:14:01.443Z,96178.78
2024-01-01T12:16:27.894Z,96171.84
2024-01-01T12:18:54.375Z,96167.66
2024-01-01T12:21:20.795Z,96165.16
2024-01-01T12:23:47.191Z,96172.63
2024-01-01T12:26:13.615Z,96159.09
2024-01-01T12:28:41.782Z,96164.69
2024-01-01T12:31:08.278Z,96162.59
2024-01-01T12:33:35.027Z,96165.22
2024-01-01T12:36:01.679Z,96164.78
2024-01-01T12:38:28.416Z,96159.44
2024-01-01T12:40:55.047Z,96170.50
2024-01-01T12:43:21.624Z,96163.72
2024-01-01T12:45:48.170Z,96159.59
2024-01-01T12:48:14.812Z,96143.94
2024-01-01T12:50:41.402Z,96150.84
2024-01-01T12:53:08.379Z,96140.41
2024-01-01T12:55:35.239Z,96141.63
2024-01-01T12:58:01.815Z,96144.44
2024-01-01T13:00:28.411Z,96146.19
2024-01-01T13:02:55.038Z,96135.69
2024-01-01T13:05:21.653Z,96144.25
2024-01-01T13:07:48.291Z,96141.97
2024-01-01T13:10:14.916Z,96137.59
2024-01-01T13:12:41.466Z,96140.81
2024-01-01T13:15:07.994Z,96139.38
2024-01-01T13:17:34.815Z,96133.00
2024-01-01T13:20:01.561Z,96130.78
2024-01-01T13:22:28.300Z,96135.09
2024-01-01T13:24:54.848Z,96130.38
2024-01-01T13:27:21.489Z,96120.00
2024-01-01T13:29:48.112Z,96122.22
2024-01-01T13:32:14.867Z,96128.88
2024-01-01T13:34:41.712Z,96115.19
2024-01-01T13:37:08.498Z,96121.38
2024-01-01T13:39:35.055Z,96123.66
2024-01-01T13:42:01.648Z,96120.91
2024-01-01T13:44:28.142Z,96118.41
2024-01-01T13:46:54.612Z,96116.28
2024-01-01T13:49:21.090Z,96116.94
2024-01-01T13:51:50.311Z,96109.50
2024-01-01T13:54:17.097Z,96114.06
2024-01-01T13:56:43.695Z,96115.16
2024-01-01T13:59:10.279Z,96116.53
2024-01-01T14:01:36.739Z,96103.69
2024-01-01T14:04:03.460Z,96113.88
2024-01-01T14:06:30.043Z,96107.03
2024-01-01T14:08:56.498Z,96106.41
2024-01-01T14:11:23.151Z,96105.75
2024-01-01T14:13:49.788Z,96119.31
2024-01-01T14:16:16.365Z,96109.09
2024-01-01T14:18:42.868Z,96107.91
2024-01-01T14:21:09.336Z,96097.38
2024-01-01T14:23:35.872Z,96100.88
2024-01-01T14:26:02.388Z,96102.94
2024-01-01T14:28:28.865Z,96101.50
2024-01-01T14:30:55.414Z,96109.22
2024-01-01T14:33:21.995Z,96111.63
2024-01-01T14:35:48.696Z,96101.91
2024-01-01T14:38:15.239Z,96104.41
2024-01-01T14:40:41.956Z,96110.44
2024-01-01T14:43:08.737Z,96107.69
2024-01-01T14:45:35.331Z,96107.00
2024-01-01T14:48:02.101Z,96103.91
2024-01-01T14:50:28.816Z,96111.78
2024-01-01T14:52:55.505Z,96103.78
2024-01-01T14:55:22.078Z,96113.34
2024-01-01T14:57:48.677Z,96113.00
2024-01-01T15:00:15.232Z,96106.06
2024-01-01T15:02:41.784Z,96113.16
2024-01-01T15:05:08.526Z,96126.72
2024-01-01T15:07:35.115Z,96115.91
2024-01-01T15:10:01.692Z,96122.81
2024-01-01T15:12:28.252Z,96118.25
2024-01-01T15:14:54.816Z,96118.88
2024-01-01T15:17:21.626Z,96124.75
2024-01-01T15:19:48.321Z,96140.25
2024-01-01T15:22:14.979Z,96139.75
2024-01-01T15:24:41.617Z,96135.69
2024-01-01T15:27:08.224Z,96153.59
2024-01-01T15:29:34.846Z,96165.78
2024-01-01T15:32:01.456Z,96174.81
2024-01-01T15:34:28.104Z,96178.78
2024-01-01T15:36:54.678Z,96174.25
2024-01-01T15:39:21.303Z,96177.63
2024-01-01T15:41:47.853Z,96174.94
2024-01-01T15:44:14.590Z,96177.00
2024-01-01T15:46:41.254Z,96183.22
2024-01-01T15:49:07.865Z,96181.50
2024-01-01T15:51:39.333Z,96183.63
2024-01-01T15:54:06.715Z,96190.06
2024-01-01T15:56:33.424Z,96192.31
2024-01-01T15:59:00.166Z,96191.81
2024-01-01T16:01:27.020Z,96193.16
2024-01-01T16:03:53.794Z,96194.06
2024-01-01T16:06:20.793Z,96192.03
2024-01-01T16:08:47.628Z,96195.84
2024-01-01T16:11:14.443Z,96201.47
2024-01-01T16:13:41.329Z,96185.59
2024-01-01T16:16:08.074Z,96185.25
2024-01-01T16:18:34.928Z,96189.59
2024-01-01T16:21:02.924Z,96196.19
2024-01-01T16:23:29.743Z,96196.28
2024-01-01T16:25:56.448Z,96199.91
2024-01-01T16:28:23.097Z,96204.13
2024-01-01T16:30:49.891Z,96205.19
2024-01-01T16:33:16.796Z,96208.03
2024-01-01T16:35:43.554Z,96192.88
2024-01-01T16:38:10.225Z,96194.16
2024-01-01T16:40:36.877Z,96198.81
2024-01-01T16:43:03.671Z,96202.69
2024-01-01T16:45:30.471Z,96201.78
2024-01-01T16:47:57.196Z,96198.81
2024-01-01T16:50:23.882Z,96197.31
2024-01-01T16:52:50.518Z,96200.94
2024-01-01T16:55:17.390Z,96193.16
2024-01-01T16:57:43.929Z,96190.56
2024-01-01T17:00:10.583Z,96196.06
2024-01-01T17:02:37.326Z,96200.31
2024-01-01T17:05:04.064Z,96197.03
2024-01-01T17:07:30.708Z,96192.56
2024-01-01T17:09:57.286Z,96208.88
2024-01-01T17:12:23.994Z,96201.66
2024-01-01T17:14:50.602Z,96206.34
2024-01-01T17:17:17.247Z,96205.59
2024-01-01T17:19:43.841Z,96201.22
2024-01-01T17:22:10.720Z,96199.34
2024-01-01T17:24:37.339Z,96202.97
2024-01-01T17:27:04.105Z,96194.84
2024-01-01T17:29:30.837Z,96200.91
2024-01-01T17:31:57.506Z,96202.94
2024-01-01T17:34:24.158Z,96194.94
2024-01-01T17:36:50.745Z,96201.53
2024-01-01T17:39:17.341Z,96201.81
2024-01-01T17:41:43.896Z,96207.19
2024-01-01T17:44:10.686Z,96196.91
2024-01-01T17:46:37.281Z,96191.72
2024-01-01T17:49:03.996Z,96191.72
2024-01-01T17:51:30.669Z,96198.81
2024-01-01T17:53:57.265Z,96198.47
2024-01-01T17:56:23.796Z,96198.03
2024-01-01T17:58:50.354Z,96200.06
2024-01-01T18:01:16.778Z,96203.47
2024-01-01T18:03:43.408Z,96201.66
2024-01-01T18:06:10.033Z,96194.59
2024-01-01T18:08:36.705Z,96198.50
2024-01-01T18:11:03.277Z,96191.25
2024-01-01T18:13:29.718Z,96193.38
2024-01-01T18:15:56.180Z,96192.41
2024-01-01T18:18:22.695Z,96191.94
2024-01-01T18:20:49.192Z,96182.94
2024-01-01T18:23:15.782Z,96183.16
2024-01-01T18:25:42.246Z,96182.19
2024-01-01T18:28:08.692Z,96179.56
2024-01-01T18:30:35.193Z,96181.63
2024-01-01T18:33:01.862Z,96190.25
2024-01-01T18:35:28.570Z,96194.72
2024-01-01T18:37:55.443Z,96189.75
2024-01-01T18:40:21.936Z,96198.16
2024-01-01T18:42:48.656Z,96207.50
2024-01-01T18:45:15.353Z,96212.53
2024-01-01T18:47:42.257Z,96214.25
2024-01-01T18:50:09.656Z,96219.38
2024-01-01T18:52:39.508Z,96220.59
2024-01-01T18:55:06.335Z,96236.50
2024-01-01T18:57:33.075Z,96241.16
2024-01-01T18:59:59.786Z,96249.22
2024-01-01T19:02:26.423Z,96249.72
2024-01-01T19:04:53.656Z,96248.00
2024-01-01T19:07:20.505Z,96247.75
2024-01-01T19:09:47.151Z,96252.44
2024-01-01T19:12:13.724Z,96254.69
2024-01-01T19:14:40.599Z,96258.88
2024-01-01T19:17:07.382Z,96276.28
2024-01-01T19:19:34.290Z,96273.88
2024-01-01T19:22:01.419Z,96271.25
2024-01-01T19:24:28.233Z,96264.16
2024-01-01T19:26:54.971Z,96272.84
2024-01-01T19:29:21.601Z,96258.34
2024-01-01T19:31:48.691Z,96261.66
2024-01-01T19:34:15.588Z,96257.53
2024-01-01T19:36:42.317Z,96247.38
2024-01-01T19:39:09.353Z,96236.34
2024-01-01T19:41:36.071Z,96245.91
2024-01-01T19:44:02.980Z,96251.63
2024-01-01T19:46:29.716Z,96253.53
2024-01-01T19:48:56.463Z,96251.84
2024-01-01T19:51:23.086Z,96249.41
2024-01-01T19:53:50.062Z,96252.25
2024-01-01T19:56:16.876Z,96253.00
2024-01-01T19:58:43.460Z,96250.03
2024-01-01T20:01:10.096Z,96252.09
2024-01-01T20:03:36.876Z,96247.16
2024-01-01T20:06:03.515Z,96244.91
2024-01-01T20:08:36.902Z,96242.22
2024-01-01T20:11:06.926Z,96242.50
2024-01-01T20:13:33.527Z,96229.19
2024-01-01T20:16:00.138Z,96228.19
2024-01-01T20:18:26.863Z,96228.75
2024-01-01T20:20:53.634Z,96216.94
2024-01-01T20:23:20.345Z,96207.22
2024-01-01T20:25:46.949Z,96215.47
2024-01-01T20:28:13.638Z,96218.19
2024-01-01T20:30:40.214Z,96210.94
2024-01-01T20:33:07.212Z,96207.97
2024-01-01T20:35:34.127Z,96209.06
2024-01-01T20:38:00.837Z,96206.75
2024-01-01T20:40:27.516Z,96204.66
2024-01-01T20:42:54.141Z,96201.47
2024-01-01T20:45:20.730Z,96212.84
2024-01-01T20:47:47.343Z,96199.81
2024-01-01T20:50:14.013Z,96191.84
2024-01-01T20:52:46.490Z,96195.06
2024-01-01T20:55:19.597Z,96185.19
2024-01-01T20:57:46.353Z,96184.84
2024-01-01T21:00:13.255Z,96176.28
2024-01-01T21:02:40.040Z,96184.88
2024-01-01T21:05:06.744Z,96175.72
2024-01-01T21:07:35.913Z,96172.88
2024-01-01T21:10:02.698Z,96168.91
2024-01-01T21:12:29.363Z,96171.44
2024-01-01T21:14:55.990Z,96158.59
2024-01-01T21:17:22.646Z,96155.31
2024-01-01T21:19:50.482Z,96155.13
2024-01-01T21:22:17.165Z,96150.53
2024-01-01T21:24:43.888Z,96146.34
2024-01-01T21:27:10.726Z,96140.47
2024-01-01T21:29:37.549Z,96155.94
2024-01-01T21:32:04.362Z,96140.25
2024-01-01T21:34:31.083Z,96143.69
2024-01-01T21:36:57.694Z,96133.91
2024-01-01T21:39:24.337Z,96131.75
2024-01-01T21:41:51.070Z,96132.63
2024-01-01T21:44:17.723Z,96138.00
2024-01-01T21:46:44.417Z,96139.13
2024-01-01T21:49:11.231Z,96123.00
2024-01-01T21:51:38.079Z,96127.38
2024-01-01T21:54:04.636Z,96130.53
2024-01-01T21:56:31.287Z,96127.53
2024-01-01T21:58:57.861Z,96128.53
2024-01-01T22:01:24.463Z,96137.34
2024-01-01T22:03:52.694Z,96135.88
2024-01-01T22:06:19.355Z,96140.06
2024-01-01T22:08:46.213Z,96128.94
2024-01-01T22:11:13.127Z,96146.34
2024-01-01T22:13:39.711Z,96146.00
2024-01-01T22:16:06.343Z,96145.66
2024-01-01T22:18:33.006Z,96144.28
2024-01-01T22:20:59.728Z,96149.75
2024-01-01T22:23:26.500Z,96157.78
2024-01-01T22:25:53.320Z,96162.84
2024-01-01T22:28:20.142Z,96173.50
2024-01-01T22:30:46.964Z,96173.00
2024-01-01T22:33:13.857Z,96172.50
2024-01-01T22:35:40.584Z,96168.88
2024-01-01T22:38:07.303Z,96169.94
2024-01-01T22:40:33.935Z,96169.50
2024-01-01T22:43:00.523Z,96155.34
2024-01-01T22:45:27.118Z,96160.25
2024-01-01T22:47:53.817Z,96160.78
2024-01-01T22:50:20.830Z,96150.47
2024-01-01T22:52:47.560Z,96157.78
2024-01-01T22:55:14.192Z,96148.19
2024-01-01T22:57:40.762Z,96142.41
2024-01-01T23:00:07.370Z,96151.97
2024-01-01T23:02:35.864Z,96149.97
2024-01-01T23:05:02.441Z,96161.88
2024-01-01T23:07:29.075Z,96149.56
2024-01-01T23:09:55.668Z,96137.97
2024-01-01T23:12:22.293Z,96138.78
2024-01-01T23:14:48.842Z,96139.72
2024-01-01T23:17:15.445Z,96136.63
2024-01-01T23:19:42.017Z,96138.28
2024-01-01T23:22:08.595Z,96131.28
2024-01-01T23:24:35.165Z,96117.16
2024-01-01T23:27:01.743Z,96126.88
2024-01-01T23:29:28.430Z,96125.03
2024-01-01T23:31:55.278Z,96131.09
2024-01-01T23:34:22.227Z,96132.28
2024-01-01T23:36:49.211Z,96123.56
2024-01-01T23:39:16.050Z,96116.84
2024-01-01T23:41:42.802Z,96120.84
2024-01-01T23:44:09.391Z,96131.63
2024-01-01T23:46:35.977Z,96127.59
2024-01-01T23:49:02.627Z,96135.81
2024-01-01T23:51:29.240Z,96124.25
2024-01-01T23:53:57.252Z,96116.03
2024-01-01T23:56:24.967Z,96119.34
2024-01-01T23:58:51.608Z,96119.53
